Terminal Aerodrome Forecast
Issued by NWS Twin Cities, MN

Home | Current Version | Previous Version | Graphics & Text | Print | Product List | Glossary On
Versions: 1 2 3 4 5 6 7 8 9 10 11 12
021
FTUS43 KMPX 182327
TAFEAU
TAF
KEAU 182327Z 1900/1924 22007KT P6SM SKC
     FM190200 20004KT P6SM BKN250
     FM191500 18007KT P6SM BKN150
     FM192300 21007KT P6SM BKN150=

USA.gov is the U.S. government's official web portal to all federal, state and local government web resources and services.